Anthony, Idaho
Current Conditions -  °F | °C
As of 4:53 PM on Sunday 21 Dec 2014 (Local Time) from KRXE Reporting Station
Broken Clouds Broken Clouds  
Wind Chill:   Ceiling: 11000
Heat Index:   Visibility: 10mi
Dew Point:   Wind: 7mph
Humidity: 82%   Direction: 250°WSW
Pressure: 29.8"   Gusts: NA
Location:  44.2887°N, 111.507°W
Report Text: KRXE 212353Z AUTO 25006KT 10SM FEW080 BKN110 04/01 A2980 RMK AO2 SLP098 T00390011 10056 20033 51027
Loading
Personal Weather Stations






























Interactive Weather Map New forecast layout! Learn more

10-Day Weather Forecast

Advertisements
Track Severe Weather on mobile